sensor_id;sensor_type;location;lat;lon;timestamp;temperature;humidity
38020;DHT22;23829;51.350;17.286;2024-01-06T00:00:02;19.30;34.40
38020;DHT22;23829;51.350;17.286;2024-01-06T00:02:58;19.50;34.00
38020;DHT22;23829;51.350;17.286;2024-01-06T00:05:24;19.40;34.10
38020;DHT22;23829;51.350;17.286;2024-01-06T00:07:50;19.50;34.10
38020;DHT22;23829;51.350;17.286;2024-01-06T00:10:17;19.80;33.50
38020;DHT22;23829;51.350;17.286;2024-01-06T00:12:44;19.40;34.00
38020;DHT22;23829;51.350;17.286;2024-01-06T00:15:10;19.50;33.60
38020;DHT22;23829;51.350;17.286;2024-01-06T00:17:37;19.50;34.10
38020;DHT22;23829;51.350;17.286;2024-01-06T00:20:03;19.20;34.00
38020;DHT22;23829;51.350;17.286;2024-01-06T00:22:30;19.00;34.70
38020;DHT22;23829;51.350;17.286;2024-01-06T00:24:56;18.60;35.00
38020;DHT22;23829;51.350;17.286;2024-01-06T00:27:23;18.80;35.10
38020;DHT22;23829;51.350;17.286;2024-01-06T00:29:49;18.90;35.00
38020;DHT22;23829;51.350;17.286;2024-01-06T00:32:15;18.90;34.80
38020;DHT22;23829;51.350;17.286;2024-01-06T00:34:41;18.50;35.40
38020;DHT22;23829;51.350;17.286;2024-01-06T00:37:08;18.60;35.60
38020;DHT22;23829;51.350;17.286;2024-01-06T00:39:34;18.10;35.60
38020;DHT22;23829;51.350;17.286;2024-01-06T00:42:00;17.10;37.20
38020;DHT22;23829;51.350;17.286;2024-01-06T00:44:27;17.60;37.30
38020;DHT22;23829;51.350;17.286;2024-01-06T00:46:53;17.30;37.30
38020;DHT22;23829;51.350;17.286;2024-01-06T00:49:19;17.50;37.40
38020;DHT22;23829;51.350;17.286;2024-01-06T00:51:45;18.20;36.30
38020;DHT22;23829;51.350;17.286;2024-01-06T00:54:12;17.90;36.40
38020;DHT22;23829;51.350;17.286;2024-01-06T00:56:38;17.70;36.70
38020;DHT22;23829;51.350;17.286;2024-01-06T00:59:04;18.20;36.30
38020;DHT22;23829;51.350;17.286;2024-01-06T01:01:31;18.20;35.90
38020;DHT22;23829;51.350;17.286;2024-01-06T01:03:58;17.90;36.10
38020;DHT22;23829;51.350;17.286;2024-01-06T01:06:24;18.10;36.40
38020;DHT22;23829;51.350;17.286;2024-01-06T01:08:50;17.80;36.50
38020;DHT22;23829;51.350;17.286;2024-01-06T01:11:20;18.10;35.90
38020;DHT22;23829;51.350;17.286;2024-01-06T01:13:46;18.60;35.40
38020;DHT22;23829;51.350;17.286;2024-01-06T01:16:13;18.70;34.80
38020;DHT22;23829;51.350;17.286;2024-01-06T01:18:39;18.30;35.10
38020;DHT22;23829;51.350;17.286;2024-01-06T01:21:05;17.90;35.60
38020;DHT22;23829;51.350;17.286;2024-01-06T01:23:31;17.80;35.70
38020;DHT22;23829;51.350;17.286;2024-01-06T01:25:58;18.40;35.40
38020;DHT22;23829;51.350;17.286;2024-01-06T01:28:24;17.90;35.20
38020;DHT22;23829;51.350;17.286;2024-01-06T01:30:50;17.70;36.30
38020;DHT22;23829;51.350;17.286;2024-01-06T01:33:16;17.50;36.50
38020;DHT22;23829;51.350;17.286;2024-01-06T01:35:43;16.90;37.10
38020;DHT22;23829;51.350;17.286;2024-01-06T01:38:09;16.60;37.70
38020;DHT22;23829;51.350;17.286;2024-01-06T01:40:35;16.50;38.10
38020;DHT22;23829;51.350;17.286;2024-01-06T01:43:01;15.80;39.20
38020;DHT22;23829;51.350;17.286;2024-01-06T01:45:28;16.00;39.50
38020;DHT22;23829;51.350;17.286;2024-01-06T01:47:54;16.20;39.00
38020;DHT22;23829;51.350;17.286;2024-01-06T01:50:20;16.30;38.80
38020;DHT22;23829;51.350;17.286;2024-01-06T01:52:48;16.90;38.00
38020;DHT22;23829;51.350;17.286;2024-01-06T01:55:15;16.70;38.00
38020;DHT22;23829;51.350;17.286;2024-01-06T01:57:41;16.90;37.70
38020;DHT22;23829;51.350;17.286;2024-01-06T02:00:08;17.40;37.00
38020;DHT22;23829;51.350;17.286;2024-01-06T02:02:40;17.70;36.20
38020;DHT22;23829;51.350;17.286;2024-01-06T02:05:07;17.80;36.10
38020;DHT22;23829;51.350;17.286;2024-01-06T02:07:33;18.00;35.60
38020;DHT22;23829;51.350;17.286;2024-01-06T02:10:00;17.50;36.00
38020;DHT22;23829;51.350;17.286;2024-01-06T02:12:26;17.00;36.90
38020;DHT22;23829;51.350;17.286;2024-01-06T02:14:52;17.50;36.80
38020;DHT22;23829;51.350;17.286;2024-01-06T02:17:18;17.30;36.60
38020;DHT22;23829;51.350;17.286;2024-01-06T02:19:45;17.30;36.90
38020;DHT22;23829;51.350;17.286;2024-01-06T02:22:11;17.20;37.00
38020;DHT22;23829;51.350;17.286;2024-01-06T02:24:37;17.30;36.60
38020;DHT22;23829;51.350;17.286;2024-01-06T02:27:04;17.60;36.50
38020;DHT22;23829;51.350;17.286;2024-01-06T02:29:30;17.00;37.00
38020;DHT22;23829;51.350;17.286;2024-01-06T02:31:56;17.30;37.10
38020;DHT22;23829;51.350;17.286;2024-01-06T02:34:24;17.50;36.30
38020;DHT22;23829;51.350;17.286;2024-01-06T02:36:50;17.10;36.60
38020;DHT22;23829;51.350;17.286;2024-01-06T02:39:16;17.00;37.30
38020;DHT22;23829;51.350;17.286;2024-01-06T02:41:42;17.50;36.40
38020;DHT22;23829;51.350;17.286;2024-01-06T02:44:09;17.80;35.80
38020;DHT22;23829;51.350;17.286;2024-01-06T02:46:35;17.70;36.00
38020;DHT22;23829;51.350;17.286;2024-01-06T02:49:01;17.50;36.30
38020;DHT22;23829;51.350;17.286;2024-01-06T02:51:27;17.90;35.80
38020;DHT22;23829;51.350;17.286;2024-01-06T02:53:54;18.10;35.30
38020;DHT22;23829;51.350;17.286;2024-01-06T02:56:20;17.80;35.40
38020;DHT22;23829;51.350;17.286;2024-01-06T02:58:46;17.20;36.50
38020;DHT22;23829;51.350;17.286;2024-01-06T03:01:12;17.90;35.90
38020;DHT22;23829;51.350;17.286;2024-01-06T03:03:39;17.60;35.80
38020;DHT22;23829;51.350;17.286;2024-01-06T03:06:05;17.20;36.30
38020;DHT22;23829;51.350;17.286;2024-01-06T03:08:32;16.80;37.20
38020;DHT22;23829;51.350;17.286;2024-01-06T03:10:58;16.90;37.40
38020;DHT22;23829;51.350;17.286;2024-01-06T03:13:25;16.60;37.80
38020;DHT22;23829;51.350;17.286;2024-01-06T03:15:51;16.20;38.50
38020;DHT22;23829;51.350;17.286;2024-01-06T03:18:17;15.90;39.20
38020;DHT22;23829;51.350;17.286;2024-01-06T03:20:43;16.10;39.30
38020;DHT22;23829;51.350;17.286;2024-01-06T03:23:10;16.90;38.30
38020;DHT22;23829;51.350;17.286;2024-01-06T03:25:36;16.80;37.80
38020;DHT22;23829;51.350;17.286;2024-01-06T03:28:03;16.50;38.10
38020;DHT22;23829;51.350;17.286;2024-01-06T03:30:29;16.60;38.40
38020;DHT22;23829;51.350;17.286;2024-01-06T03:32:55;16.20;38.40
38020;DHT22;23829;51.350;17.286;2024-01-06T03:35:21;16.40;39.00
38020;DHT22;23829;51.350;17.286;2024-01-06T03:37:48;17.00;37.80
38020;DHT22;23829;51.350;17.286;2024-01-06T03:40:14;17.40;37.00
38020;DHT22;23829;51.350;17.286;2024-01-06T03:42:40;17.00;37.20
38020;DHT22;23829;51.350;17.286;2024-01-06T03:45:07;17.90;36.20
38020;DHT22;23829;51.350;17.286;2024-01-06T03:47:33;18.20;35.40
38020;DHT22;23829;51.350;17.286;2024-01-06T03:49:59;19.00;34.40
38020;DHT22;23829;51.350;17.286;2024-01-06T03:52:26;18.40;34.50
38020;DHT22;23829;51.350;17.286;2024-01-06T03:54:52;18.00;35.50
38020;DHT22;23829;51.350;17.286;2024-01-06T03:57:18;17.80;35.90
38020;DHT22;23829;51.350;17.286;2024-01-06T03:59:45;17.40;36.40
38020;DHT22;23829;51.350;17.286;2024-01-06T04:02:11;17.40;36.70
38020;DHT22;23829;51.350;17.286;2024-01-06T04:04:37;17.10;36.60
38020;DHT22;23829;51.350;17.286;2024-01-06T04:07:04;17.20;37.00
38020;DHT22;23829;51.350;17.286;2024-01-06T04:09:30;17.20;37.10
38020;DHT22;23829;51.350;17.286;2024-01-06T04:11:57;16.60;37.40
38020;DHT22;23829;51.350;17.286;2024-01-06T04:14:23;16.30;38.40
38020;DHT22;23829;51.350;17.286;2024-01-06T04:16:50;16.80;37.90
38020;DHT22;23829;51.350;17.286;2024-01-06T04:19:16;16.80;37.80
38020;DHT22;23829;51.350;17.286;2024-01-06T04:21:42;16.20;38.90
38020;DHT22;23829;51.350;17.286;2024-01-06T04:24:08;16.10;38.60
38020;DHT22;23829;51.350;17.286;2024-01-06T04:26:34;15.90;39.40
38020;DHT22;23829;51.350;17.286;2024-01-06T04:29:01;16.30;38.50
38020;DHT22;23829;51.350;17.286;2024-01-06T04:31:27;16.10;38.70
38020;DHT22;23829;51.350;17.286;2024-01-06T04:33:53;16.30;38.60
38020;DHT22;23829;51.350;17.286;2024-01-06T04:36:20;16.70;37.50
38020;DHT22;23829;51.350;17.286;2024-01-06T04:38:46;16.60;37.90
38020;DHT22;23829;51.350;17.286;2024-01-06T04:41:12;16.40;37.90
38020;DHT22;23829;51.350;17.286;2024-01-06T04:43:38;16.60;37.80
38020;DHT22;23829;51.350;17.286;2024-01-06T04:46:05;16.40;37.80
38020;DHT22;23829;51.350;17.286;2024-01-06T04:48:31;16.50;38.00
38020;DHT22;23829;51.350;17.286;2024-01-06T04:50:57;16.60;37.90
38020;DHT22;23829;51.350;17.286;2024-01-06T04:53:23;16.30;38.00
38020;DHT22;23829;51.350;17.286;2024-01-06T04:55:50;15.90;38.80
38020;DHT22;23829;51.350;17.286;2024-01-06T04:58:16;15.50;39.40
38020;DHT22;23829;51.350;17.286;2024-01-06T05:00:42;15.70;39.90
38020;DHT22;23829;51.350;17.286;2024-01-06T05:03:08;15.30;39.70
38020;DHT22;23829;51.350;17.286;2024-01-06T05:05:35;16.10;39.00
38020;DHT22;23829;51.350;17.286;2024-01-06T05:08:01;16.00;38.80
38020;DHT22;23829;51.350;17.286;2024-01-06T05:10:28;16.20;38.70
38020;DHT22;23829;51.350;17.286;2024-01-06T05:12:54;16.00;38.60
38020;DHT22;23829;51.350;17.286;2024-01-06T05:15:20;16.30;38.60
38020;DHT22;23829;51.350;17.286;2024-01-06T05:17:46;16.50;37.90
38020;DHT22;23829;51.350;17.286;2024-01-06T05:20:13;17.00;37.50
38020;DHT22;23829;51.350;17.286;2024-01-06T05:22:39;17.10;37.00
38020;DHT22;23829;51.350;17.286;2024-01-06T05:25:06;16.70;37.30
38020;DHT22;23829;51.350;17.286;2024-01-06T05:27:32;17.00;37.30
38020;DHT22;23829;51.350;17.286;2024-01-06T05:29:58;17.10;37.00
38020;DHT22;23829;51.350;17.286;2024-01-06T05:32:24;17.40;36.50
38020;DHT22;23829;51.350;17.286;2024-01-06T05:34:51;17.80;35.60
38020;DHT22;23829;51.350;17.286;2024-01-06T05:37:17;17.70;35.70
38020;DHT22;23829;51.350;17.286;2024-01-06T05:39:43;18.20;34.90
38020;DHT22;23829;51.350;17.286;2024-01-06T05:42:10;18.40;34.50
38020;DHT22;23829;51.350;17.286;2024-01-06T05:44:41;18.00;34.80
38020;DHT22;23829;51.350;17.286;2024-01-06T05:47:07;18.30;34.70
38020;DHT22;23829;51.350;17.286;2024-01-06T05:49:34;18.40;34.40
38020;DHT22;23829;51.350;17.286;2024-01-06T05:52:00;18.20;34.60
38020;DHT22;23829;51.350;17.286;2024-01-06T05:54:27;18.50;34.20
38020;DHT22;23829;51.350;17.286;2024-01-06T05:56:53;18.10;34.60
38020;DHT22;23829;51.350;17.286;2024-01-06T05:59:19;17.70;35.40
38020;DHT22;23829;51.350;17.286;2024-01-06T06:01:45;17.80;35.40
38020;DHT22;23829;51.350;17.286;2024-01-06T06:04:12;18.20;34.60
38020;DHT22;23829;51.350;17.286;2024-01-06T06:06:38;18.00;34.90
38020;DHT22;23829;51.350;17.286;2024-01-06T06:09:04;17.90;35.10
38020;DHT22;23829;51.350;17.286;2024-01-06T06:11:33;17.80;35.40
38020;DHT22;23829;51.350;17.286;2024-01-06T06:14:00;17.90;35.30
38020;DHT22;23829;51.350;17.286;2024-01-06T06:16:29;17.90;35.20
38020;DHT22;23829;51.350;17.286;2024-01-06T06:18:55;17.70;35.40
38020;DHT22;23829;51.350;17.286;2024-01-06T06:21:22;17.80;35.60
38020;DHT22;23829;51.350;17.286;2024-01-06T06:23:48;18.40;34.40
38020;DHT22;23829;51.350;17.286;2024-01-06T06:26:15;19.10;33.10
38020;DHT22;23829;51.350;17.286;2024-01-06T06:28:42;18.10;33.80
38020;DHT22;23829;51.350;17.286;2024-01-06T06:31:08;17.70;35.20
38020;DHT22;23829;51.350;17.286;2024-01-06T06:33:34;17.40;35.40
38020;DHT22;23829;51.350;17.286;2024-01-06T06:36:01;17.80;35.20
38020;DHT22;23829;51.350;17.286;2024-01-06T06:38:27;17.70;34.80
38020;DHT22;23829;51.350;17.286;2024-01-06T06:40:54;16.90;36.10
38020;DHT22;23829;51.350;17.286;2024-01-06T06:43:20;16.80;36.80
38020;DHT22;23829;51.350;17.286;2024-01-06T06:45:46;16.90;36.90
38020;DHT22;23829;51.350;17.286;2024-01-06T06:48:13;17.00;36.50
38020;DHT22;23829;51.350;17.286;2024-01-06T06:50:39;16.80;36.90
38020;DHT22;23829;51.350;17.286;2024-01-06T06:53:08;17.40;36.30
38020;DHT22;23829;51.350;17.286;2024-01-06T06:55:34;17.40;36.20
38020;DHT22;23829;51.350;17.286;2024-01-06T06:58:01;16.70;36.90
38020;DHT22;23829;51.350;17.286;2024-01-06T07:00:27;17.10;37.00
38020;DHT22;23829;51.350;17.286;2024-01-06T07:02:54;17.10;36.60
38020;DHT22;23829;51.350;17.286;2024-01-06T07:05:20;16.30;37.40
38020;DHT22;23829;51.350;17.286;2024-01-06T07:07:46;16.50;37.00
38020;DHT22;23829;51.350;17.286;2024-01-06T07:10:13;16.30;38.30
38020;DHT22;23829;51.350;17.286;2024-01-06T07:12:39;16.40;37.80
38020;DHT22;23829;51.350;17.286;2024-01-06T07:15:06;16.70;37.10
38020;DHT22;23829;51.350;17.286;2024-01-06T07:17:34;16.30;37.80
38020;DHT22;23829;51.350;17.286;2024-01-06T07:20:00;15.70;38.80
38020;DHT22;23829;51.350;17.286;2024-01-06T07:22:26;15.50;39.70
38020;DHT22;23829;51.350;17.286;2024-01-06T07:24:52;16.20;39.10
38020;DHT22;23829;51.350;17.286;2024-01-06T07:27:19;15.80;38.90
38020;DHT22;23829;51.350;17.286;2024-01-06T07:29:45;15.10;39.90
38020;DHT22;23829;51.350;17.286;2024-01-06T07:32:12;14.90;40.90
38020;DHT22;23829;51.350;17.286;2024-01-06T07:34:38;15.20;41.10
38020;DHT22;23829;51.350;17.286;2024-01-06T07:37:04;15.20;40.40
38020;DHT22;23829;51.350;17.286;2024-01-06T07:39:32;14.90;41.10
38020;DHT22;23829;51.350;17.286;2024-01-06T07:41:59;14.80;41.60
38020;DHT22;23829;51.350;17.286;2024-01-06T07:44:25;15.00;40.80
38020;DHT22;23829;51.350;17.286;2024-01-06T07:46:52;14.90;41.70
38020;DHT22;23829;51.350;17.286;2024-01-06T07:49:19;15.30;40.30
38020;DHT22;23829;51.350;17.286;2024-01-06T07:51:46;15.00;40.90
38020;DHT22;23829;51.350;17.286;2024-01-06T07:54:12;15.60;40.90
38020;DHT22;23829;51.350;17.286;2024-01-06T07:56:38;15.60;40.10
38020;DHT22;23829;51.350;17.286;2024-01-06T07:59:05;15.40;39.70
38020;DHT22;23829;51.350;17.286;2024-01-06T08:01:32;14.80;41.20
38020;DHT22;23829;51.350;17.286;2024-01-06T08:03:59;15.10;41.50
38020;DHT22;23829;51.350;17.286;2024-01-06T08:06:26;14.70;41.50
38020;DHT22;23829;51.350;17.286;2024-01-06T08:08:52;15.10;40.90
38020;DHT22;23829;51.350;17.286;2024-01-06T08:11:19;15.70;40.70
38020;DHT22;23829;51.350;17.286;2024-01-06T08:13:45;16.80;38.30
38020;DHT22;23829;51.350;17.286;2024-01-06T08:16:12;16.40;38.10
38020;DHT22;23829;51.350;17.286;2024-01-06T08:18:38;16.10;39.80
38020;DHT22;23829;51.350;17.286;2024-01-06T08:21:04;15.10;40.60
38020;DHT22;23829;51.350;17.286;2024-01-06T08:23:30;15.50;40.70
38020;DHT22;23829;51.350;17.286;2024-01-06T08:25:57;15.00;41.00
38020;DHT22;23829;51.350;17.286;2024-01-06T08:28:23;14.80;41.60
38020;DHT22;23829;51.350;17.286;2024-01-06T08:30:50;14.80;41.80
38020;DHT22;23829;51.350;17.286;2024-01-06T08:33:16;14.40;42.50
38020;DHT22;23829;51.350;17.286;2024-01-06T08:35:44;14.50;43.10
38020;DHT22;23829;51.350;17.286;2024-01-06T08:38:10;15.00;42.20
38020;DHT22;23829;51.350;17.286;2024-01-06T08:40:37;16.00;40.20
38020;DHT22;23829;51.350;17.286;2024-01-06T08:43:03;16.40;39.40
38020;DHT22;23829;51.350;17.286;2024-01-06T08:45:29;16.20;38.90
38020;DHT22;23829;51.350;17.286;2024-01-06T08:47:56;15.90;39.60
38020;DHT22;23829;51.350;17.286;2024-01-06T08:50:23;16.10;39.90
38020;DHT22;23829;51.350;17.286;2024-01-06T08:52:49;17.10;38.20
38020;DHT22;23829;51.350;17.286;2024-01-06T08:55:15;16.70;37.80
38020;DHT22;23829;51.350;17.286;2024-01-06T08:57:42;16.40;38.10
38020;DHT22;23829;51.350;17.286;2024-01-06T09:00:09;16.30;39.40
38020;DHT22;23829;51.350;17.286;2024-01-06T09:02:36;15.70;39.00
38020;DHT22;23829;51.350;17.286;2024-01-06T09:05:03;16.20;39.40
38020;DHT22;23829;51.350;17.286;2024-01-06T09:07:30;16.20;39.10
38020;DHT22;23829;51.350;17.286;2024-01-06T09:09:56;15.80;39.40
38020;DHT22;23829;51.350;17.286;2024-01-06T09:12:22;15.30;40.20
38020;DHT22;23829;51.350;17.286;2024-01-06T09:14:49;15.40;41.20
38020;DHT22;23829;51.350;17.286;2024-01-06T09:17:15;15.90;40.60
38020;DHT22;23829;51.350;17.286;2024-01-06T09:19:42;16.20;39.20
38020;DHT22;23829;51.350;17.286;2024-01-06T09:22:08;15.90;39.10
38020;DHT22;23829;51.350;17.286;2024-01-06T09:24:34;15.80;39.40
38020;DHT22;23829;51.350;17.286;2024-01-06T09:27:01;16.20;39.70
38020;DHT22;23829;51.350;17.286;2024-01-06T09:29:27;16.40;38.60
38020;DHT22;23829;51.350;17.286;2024-01-06T09:31:53;15.10;39.90
38020;DHT22;23829;51.350;17.286;2024-01-06T09:34:20;16.00;40.50
38020;DHT22;23829;51.350;17.286;2024-01-06T09:36:46;15.30;40.20
38020;DHT22;23829;51.350;17.286;2024-01-06T09:39:13;15.40;40.90
38020;DHT22;23829;51.350;17.286;2024-01-06T09:41:39;15.40;40.00
38020;DHT22;23829;51.350;17.286;2024-01-06T09:44:05;15.10;41.20
38020;DHT22;23829;51.350;17.286;2024-01-06T09:46:32;14.60;42.40
38020;DHT22;23829;51.350;17.286;2024-01-06T09:48:58;15.20;41.60
38020;DHT22;23829;51.350;17.286;2024-01-06T09:51:25;16.30;39.90
38020;DHT22;23829;51.350;17.286;2024-01-06T09:54:00;15.60;39.70
38020;DHT22;23829;51.350;17.286;2024-01-06T09:56:28;15.70;39.90
38020;DHT22;23829;51.350;17.286;2024-01-06T09:58:55;14.80;41.00
38020;DHT22;23829;51.350;17.286;2024-01-06T10:01:22;15.60;40.60
38020;DHT22;23829;51.350;17.286;2024-01-06T10:03:48;16.20;39.70
38020;DHT22;23829;51.350;17.286;2024-01-06T10:06:15;15.70;39.20
38020;DHT22;23829;51.350;17.286;2024-01-06T10:08:48;15.80;39.70
38020;DHT22;23829;51.350;17.286;2024-01-06T10:11:14;15.20;40.60
38020;DHT22;23829;51.350;17.286;2024-01-06T10:13:41;15.20;40.90
38020;DHT22;23829;51.350;17.286;2024-01-06T10:16:07;14.60;41.30
38020;DHT22;23829;51.350;17.286;2024-01-06T10:18:34;14.50;42.30
38020;DHT22;23829;51.350;17.286;2024-01-06T10:21:05;14.10;43.20
38020;DHT22;23829;51.350;17.286;2024-01-06T10:23:33;14.60;42.60
38020;DHT22;23829;51.350;17.286;2024-01-06T10:25:59;15.80;40.50
38020;DHT22;23829;51.350;17.286;2024-01-06T10:28:26;15.70;39.70
38020;DHT22;23829;51.350;17.286;2024-01-06T10:30:53;15.00;40.70
38020;DHT22;23829;51.350;17.286;2024-01-06T10:33:21;14.40;42.00
38020;DHT22;23829;51.350;17.286;2024-01-06T10:35:53;14.90;41.60
38020;DHT22;23829;51.350;17.286;2024-01-06T10:38:22;15.40;40.80
38020;DHT22;23829;51.350;17.286;2024-01-06T10:41:02;15.40;40.60
38020;DHT22;23829;51.350;17.286;2024-01-06T10:43:34;15.50;41.10
38020;DHT22;23829;51.350;17.286;2024-01-06T10:46:10;14.90;41.20
38020;DHT22;23829;51.350;17.286;2024-01-06T10:48:38;14.50;42.60
38020;DHT22;23829;51.350;17.286;2024-01-06T10:51:09;15.20;41.80
38020;DHT22;23829;51.350;17.286;2024-01-06T10:53:36;15.60;40.30
38020;DHT22;23829;51.350;17.286;2024-01-06T10:56:04;16.30;39.60
38020;DHT22;23829;51.350;17.286;2024-01-06T10:58:31;15.70;39.60
38020;DHT22;23829;51.350;17.286;2024-01-06T11:01:00;15.80;39.50
38020;DHT22;23829;51.350;17.286;2024-01-06T11:03:29;15.20;39.50
38020;DHT22;23829;51.350;17.286;2024-01-06T11:05:57;15.10;41.00
38020;DHT22;23829;51.350;17.286;2024-01-06T11:08:25;14.80;41.10
38020;DHT22;23829;51.350;17.286;2024-01-06T11:10:52;14.30;42.70
38020;DHT22;23829;51.350;17.286;2024-01-06T11:13:23;14.80;42.40
38020;DHT22;23829;51.350;17.286;2024-01-06T11:15:50;14.30;42.10
38020;DHT22;23829;51.350;17.286;2024-01-06T11:18:34;14.40;42.70
38020;DHT22;23829;51.350;17.286;2024-01-06T11:21:17;15.00;41.60
38020;DHT22;23829;51.350;17.286;2024-01-06T11:26:33;14.50;41.20
38020;DHT22;23829;51.350;17.286;2024-01-06T11:29:00;14.60;42.30
38020;DHT22;23829;51.350;17.286;2024-01-06T11:31:33;14.50;41.60
38020;DHT22;23829;51.350;17.286;2024-01-06T11:34:18;14.00;42.70
38020;DHT22;23829;51.350;17.286;2024-01-06T11:36:50;13.60;43.30
38020;DHT22;23829;51.350;17.286;2024-01-06T11:39:36;14.10;43.40
38020;DHT22;23829;51.350;17.286;2024-01-06T11:42:04;14.30;41.70
38020;DHT22;23829;51.350;17.286;2024-01-06T11:44:43;14.20;42.60
38020;DHT22;23829;51.350;17.286;2024-01-06T11:47:11;14.50;42.20
38020;DHT22;23829;51.350;17.286;2024-01-06T11:49:38;14.50;40.90
38020;DHT22;23829;51.350;17.286;2024-01-06T11:52:04;13.90;42.90
38020;DHT22;23829;51.350;17.286;2024-01-06T11:54:32;13.30;43.70
38020;DHT22;23829;51.350;17.286;2024-01-06T11:56:58;14.40;42.70
38020;DHT22;23829;51.350;17.286;2024-01-06T11:59:25;14.50;41.20
38020;DHT22;23829;51.350;17.286;2024-01-06T12:01:51;14.20;41.60
38020;DHT22;23829;51.350;17.286;2024-01-06T12:04:18;13.20;43.60
38020;DHT22;23829;51.350;17.286;2024-01-06T12:06:44;13.50;43.90
38020;DHT22;23829;51.350;17.286;2024-01-06T12:09:11;14.00;42.70
38020;DHT22;23829;51.350;17.286;2024-01-06T12:11:41;14.00;43.00
38020;DHT22;23829;51.350;17.286;2024-01-06T12:14:11;14.80;40.90
38020;DHT22;23829;51.350;17.286;2024-01-06T12:16:37;14.70;40.30
38020;DHT22;23829;51.350;17.286;2024-01-06T12:19:03;14.80;40.90
38020;DHT22;23829;51.350;17.286;2024-01-06T12:21:30;14.20;41.70
38020;DHT22;23829;51.350;17.286;2024-01-06T12:24:18;13.60;42.90
38020;DHT22;23829;51.350;17.286;2024-01-06T12:26:47;14.50;42.00
38020;DHT22;23829;51.350;17.286;2024-01-06T12:29:14;13.70;42.30
38020;DHT22;23829;51.350;17.286;2024-01-06T12:31:40;13.90;43.40
38020;DHT22;23829;51.350;17.286;2024-01-06T12:34:07;14.10;41.50
38020;DHT22;23829;51.350;17.286;2024-01-06T12:36:37;14.30;41.20
38020;DHT22;23829;51.350;17.286;2024-01-06T12:39:05;14.00;42.00
38020;DHT22;23829;51.350;17.286;2024-01-06T12:41:31;13.50;42.90
38020;DHT22;23829;51.350;17.286;2024-01-06T12:44:01;13.50;43.00
38020;DHT22;23829;51.350;17.286;2024-01-06T12:46:27;13.70;42.50
38020;DHT22;23829;51.350;17.286;2024-01-06T12:48:54;13.30;43.20
38020;DHT22;23829;51.350;17.286;2024-01-06T12:51:20;12.90;44.80
38020;DHT22;23829;51.350;17.286;2024-01-06T12:53:46;13.10;43.90
38020;DHT22;23829;51.350;17.286;2024-01-06T12:56:13;13.90;42.50
38020;DHT22;23829;51.350;17.286;2024-01-06T12:58:41;14.10;42.40
38020;DHT22;23829;51.350;17.286;2024-01-06T13:01:07;13.20;43.10
38020;DHT22;23829;51.350;17.286;2024-01-06T13:03:34;13.10;44.10
38020;DHT22;23829;51.350;17.286;2024-01-06T13:06:00;13.00;44.40
38020;DHT22;23829;51.350;17.286;2024-01-06T13:08:27;13.40;43.90
38020;DHT22;23829;51.350;17.286;2024-01-06T13:10:57;14.90;41.10
38020;DHT22;23829;51.350;17.286;2024-01-06T13:13:24;15.30;39.90
38020;DHT22;23829;51.350;17.286;2024-01-06T13:15:50;15.80;38.80
38020;DHT22;23829;51.350;17.286;2024-01-06T13:18:16;14.90;39.00
38020;DHT22;23829;51.350;17.286;2024-01-06T13:20:45;14.30;40.90
38020;DHT22;23829;51.350;17.286;2024-01-06T13:23:11;14.10;41.20
38020;DHT22;23829;51.350;17.286;2024-01-06T13:25:38;14.80;40.80
38020;DHT22;23829;51.350;17.286;2024-01-06T13:28:07;15.40;39.60
38020;DHT22;23829;51.350;17.286;2024-01-06T13:30:34;15.80;38.50
38020;DHT22;23829;51.350;17.286;2024-01-06T13:33:00;14.70;39.40
38020;DHT22;23829;51.350;17.286;2024-01-06T13:35:27;14.10;41.30
38020;DHT22;23829;51.350;17.286;2024-01-06T13:37:55;13.60;42.50
38020;DHT22;23829;51.350;17.286;2024-01-06T13:40:24;14.20;42.00
38020;DHT22;23829;51.350;17.286;2024-01-06T13:42:51;14.80;40.80
38020;DHT22;23829;51.350;17.286;2024-01-06T13:45:18;14.40;40.50
38020;DHT22;23829;51.350;17.286;2024-01-06T13:47:45;13.60;41.10
38020;DHT22;23829;51.350;17.286;2024-01-06T13:50:12;13.70;43.20
38020;DHT22;23829;51.350;17.286;2024-01-06T13:52:39;14.30;41.00
38020;DHT22;23829;51.350;17.286;2024-01-06T13:55:06;14.40;41.40
38020;DHT22;23829;51.350;17.286;2024-01-06T13:57:32;14.60;40.50
38020;DHT22;23829;51.350;17.286;2024-01-06T13:59:58;14.20;41.50
38020;DHT22;23829;51.350;17.286;2024-01-06T14:02:25;14.10;41.40
38020;DHT22;23829;51.350;17.286;2024-01-06T14:04:51;14.80;40.90
38020;DHT22;23829;51.350;17.286;2024-01-06T14:07:18;14.30;40.10
38020;DHT22;23829;51.350;17.286;2024-01-06T14:09:46;13.30;42.80
38020;DHT22;23829;51.350;17.286;2024-01-06T14:12:12;12.70;44.00
38020;DHT22;23829;51.350;17.286;2024-01-06T14:14:40;12.80;44.60
38020;DHT22;23829;51.350;17.286;2024-01-06T14:17:08;13.60;43.30
38020;DHT22;23829;51.350;17.286;2024-01-06T14:19:34;13.90;42.70
38020;DHT22;23829;51.350;17.286;2024-01-06T14:22:00;13.10;42.70
38020;DHT22;23829;51.350;17.286;2024-01-06T14:24:27;13.50;43.70
38020;DHT22;23829;51.350;17.286;2024-01-06T14:26:53;14.20;42.80
38020;DHT22;23829;51.350;17.286;2024-01-06T14:29:21;14.30;41.20
38020;DHT22;23829;51.350;17.286;2024-01-06T14:31:48;13.70;41.50
38020;DHT22;23829;51.350;17.286;2024-01-06T14:34:14;14.00;41.90
38020;DHT22;23829;51.350;17.286;2024-01-06T14:36:41;13.20;43.10
38020;DHT22;23829;51.350;17.286;2024-01-06T14:39:19;12.90;43.20
38020;DHT22;23829;51.350;17.286;2024-01-06T14:41:49;12.60;44.40
38020;DHT22;23829;51.350;17.286;2024-01-06T14:44:15;12.50;44.80
38020;DHT22;23829;51.350;17.286;2024-01-06T14:46:42;13.00;44.50
38020;DHT22;23829;51.350;17.286;2024-01-06T14:49:08;13.40;43.10
38020;DHT22;23829;51.350;17.286;2024-01-06T14:51:34;13.80;42.60
38020;DHT22;23829;51.350;17.286;2024-01-06T14:54:01;13.60;42.30
38020;DHT22;23829;51.350;17.286;2024-01-06T14:56:27;13.50;42.60
38020;DHT22;23829;51.350;17.286;2024-01-06T14:58:53;13.40;42.30
38020;DHT22;23829;51.350;17.286;2024-01-06T15:01:20;13.60;42.10
38020;DHT22;23829;51.350;17.286;2024-01-06T15:03:46;13.60;42.60
38020;DHT22;23829;51.350;17.286;2024-01-06T15:06:13;13.80;42.10
38020;DHT22;23829;51.350;17.286;2024-01-06T15:08:39;14.20;41.30
38020;DHT22;23829;51.350;17.286;2024-01-06T15:11:06;13.80;41.40
38020;DHT22;23829;51.350;17.286;2024-01-06T15:13:34;13.70;42.00
38020;DHT22;23829;51.350;17.286;2024-01-06T15:16:05;14.10;41.70